createdAt,value
2023-03-19T00:02:25.646Z,30.67
2023-03-19T00:04:56.477Z,25.73
2023-03-19T00:07:26.139Z,31.65
2023-03-19T00:09:55.442Z,30.83
2023-03-19T00:12:31.006Z,27.65
2023-03-19T00:15:00.535Z,30.55
2023-03-19T00:17:30.315Z,34.17
2023-03-19T00:20:01.054Z,34.65
2023-03-19T00:22:31.053Z,31.65
2023-03-19T00:25:00.663Z,30.35
2023-03-19T00:27:30.580Z,29.07
2023-03-19T00:30:00.127Z,29.80
2023-03-19T00:32:30.360Z,30.70
2023-03-19T00:35:01.717Z,28.30
2023-03-19T00:37:31.656Z,31.17
2023-03-19T00:40:01.731Z,29.75
2023-03-19T00:42:31.683Z,31.52
2023-03-19T00:45:01.438Z,28.98
2023-03-19T00:47:31.160Z,28.23
2023-03-19T00:50:02.323Z,31.00
2023-03-19T00:52:32.572Z,32.53
2023-03-19T00:55:02.313Z,34.50
2023-03-19T00:57:32.248Z,27.33
2023-03-19T01:00:01.647Z,33.33
2023-03-19T01:02:32.655Z,32.08
2023-03-19T01:05:03.552Z,30.02
2023-03-19T01:07:33.973Z,28.45
2023-03-19T01:10:03.694Z,32.03
2023-03-19T01:12:33.525Z,28.77
2023-03-19T01:15:07.589Z,29.42
2023-03-19T01:17:42.685Z,30.38
2023-03-19T01:20:15.553Z,29.40
2023-03-19T01:22:46.312Z,36.88
2023-03-19T01:25:16.281Z,37.40
2023-03-19T01:27:46.520Z,32.28
2023-03-19T01:30:16.518Z,30.48
2023-03-19T01:32:46.512Z,30.73
2023-03-19T01:35:17.591Z,27.63
2023-03-19T01:37:47.810Z,35.70
2023-03-19T01:40:17.377Z,32.08
2023-03-19T01:42:58.120Z,34.15
2023-03-19T01:45:36.306Z,29.13
2023-03-19T01:48:07.229Z,31.50
2023-03-19T01:50:43.237Z,33.55
2023-03-19T01:53:16.031Z,34.05
2023-03-19T01:55:46.001Z,32.28
2023-03-19T01:58:16.723Z,31.10
2023-03-19T02:00:47.020Z,30.83
2023-03-19T02:05:49.938Z,31.65
2023-03-19T02:08:23.169Z,28.85
2023-03-19T02:10:54.395Z,39.70
2023-03-19T02:13:24.370Z,32.15
2023-03-19T02:15:53.996Z,30.05
2023-03-19T02:18:24.583Z,37.75
2023-03-19T02:21:03.932Z,32.33
2023-03-19T02:23:40.065Z,33.67
2023-03-19T02:26:13.800Z,30.05
2023-03-19T02:28:45.660Z,31.77
2023-03-19T02:31:15.581Z,32.97
2023-03-19T02:33:45.806Z,34.60
2023-03-19T02:36:18.291Z,31.27
2023-03-19T02:38:49.794Z,30.77
2023-03-19T02:41:21.680Z,31.20
2023-03-19T02:43:52.378Z,31.70
2023-03-19T02:46:21.948Z,39.97
2023-03-19T02:48:52.886Z,31.77
2023-03-19T02:51:22.207Z,31.87
2023-03-19T02:53:52.127Z,28.60
2023-03-19T02:56:23.825Z,31.25
2023-03-19T02:58:53.706Z,34.72
2023-03-19T03:01:23.456Z,30.30
2023-03-19T03:03:53.386Z,32.57
2023-03-19T03:06:22.935Z,35.00
2023-03-19T03:08:52.698Z,34.38
2023-03-19T03:11:23.748Z,34.10
2023-03-19T03:13:53.536Z,30.02
2023-03-19T03:16:23.195Z,31.40
2023-03-19T03:18:53.015Z,36.75
2023-03-19T03:21:22.669Z,32.90
2023-03-19T03:23:52.755Z,27.10
2023-03-19T03:26:23.690Z,38.53
2023-03-19T03:28:54.237Z,39.35
2023-03-19T03:31:23.774Z,33.77
2023-03-19T03:33:54.572Z,33.00
2023-03-19T03:36:24.137Z,30.65
2023-03-19T03:38:53.826Z,33.15
2023-03-19T03:41:26.251Z,35.08
2023-03-19T03:43:56.138Z,34.13
2023-03-19T03:46:26.412Z,31.38
2023-03-19T03:51:25.312Z,30.70
2023-03-19T03:53:55.146Z,36.25
2023-03-19T03:56:26.462Z,29.55
2023-03-19T03:58:56.100Z,36.53
2023-03-19T04:01:25.384Z,33.90
2023-03-19T04:03:55.422Z,31.17
2023-03-19T04:06:27.312Z,33.83
2023-03-19T04:08:57.376Z,33.75
2023-03-19T04:11:28.156Z,33.50
2023-03-19T04:13:58.385Z,33.70
2023-03-19T04:16:28.974Z,31.00
2023-03-19T04:18:58.754Z,30.73
2023-03-19T04:21:29.025Z,29.65
2023-03-19T04:23:58.998Z,31.30
2023-03-19T04:26:29.936Z,27.30
2023-03-19T04:29:00.427Z,33.10
2023-03-19T04:31:30.009Z,34.93
2023-03-19T04:33:59.654Z,31.67
2023-03-19T04:36:29.200Z,32.38
2023-03-19T04:38:58.893Z,28.85
2023-03-19T04:41:30.117Z,29.95
2023-03-19T04:44:00.048Z,29.52
2023-03-19T04:46:29.491Z,31.95
2023-03-19T04:49:00.075Z,32.03
2023-03-19T04:51:29.516Z,30.87
2023-03-19T04:53:59.179Z,30.77
2023-03-19T04:56:29.912Z,35.00
2023-03-19T04:58:59.730Z,33.13
2023-03-19T05:01:29.617Z,32.72
2023-03-19T05:03:59.476Z,29.73
2023-03-19T05:06:28.934Z,31.42
2023-03-19T05:08:59.160Z,31.63
2023-03-19T05:11:29.934Z,32.45
2023-03-19T05:13:59.762Z,35.38
2023-03-19T05:16:29.175Z,33.13
2023-03-19T05:18:58.870Z,31.48
2023-03-19T05:21:28.386Z,34.53
2023-03-19T05:23:58.586Z,31.67
2023-03-19T05:26:29.581Z,30.33
2023-03-19T05:28:59.243Z,30.30
2023-03-19T05:31:28.743Z,33.35
2023-03-19T05:33:58.713Z,33.28
2023-03-19T05:36:28.606Z,35.08
2023-03-19T05:38:58.462Z,34.70
2023-03-19T05:41:29.357Z,31.27
2023-03-19T05:43:59.052Z,29.92
2023-03-19T05:46:29.358Z,34.92
2023-03-19T05:48:59.140Z,41.92
2023-03-19T05:51:28.701Z,32.35
2023-03-19T05:53:58.460Z,32.22
2023-03-19T05:56:29.565Z,32.30
2023-03-19T05:58:59.186Z,31.88
2023-03-19T06:01:28.841Z,32.08
2023-03-19T06:03:58.660Z,29.33
2023-03-19T06:06:28.505Z,31.00
2023-03-19T06:08:58.231Z,32.90
2023-03-19T06:11:29.385Z,34.15
2023-03-19T06:13:59.589Z,30.92
2023-03-19T06:16:28.961Z,33.45
2023-03-19T06:18:59.490Z,36.25
2023-03-19T06:21:30.675Z,33.88
2023-03-19T06:24:00.937Z,39.80
2023-03-19T06:26:32.023Z,35.42
2023-03-19T06:29:01.806Z,36.15
2023-03-19T06:31:31.320Z,39.60
2023-03-19T06:34:00.973Z,32.53
2023-03-19T06:36:30.327Z,33.20
2023-03-19T06:39:00.497Z,33.85
2023-03-19T06:41:31.466Z,31.85
2023-03-19T06:44:01.246Z,33.15
2023-03-19T06:46:30.943Z,34.50
2023-03-19T06:49:01.079Z,34.70
2023-03-19T06:51:30.458Z,30.75
2023-03-19T06:54:00.270Z,36.75
2023-03-19T06:56:31.127Z,34.78
2023-03-19T06:59:01.304Z,36.38
2023-03-19T07:01:31.442Z,39.85
2023-03-19T07:04:01.338Z,34.58
2023-03-19T07:06:30.632Z,30.80
2023-03-19T07:09:00.514Z,43.00
2023-03-19T07:11:33.814Z,34.78
2023-03-19T07:14:05.246Z,36.22
2023-03-19T07:16:34.644Z,36.15
2023-03-19T07:19:04.573Z,43.50
2023-03-19T07:21:34.057Z,35.28
2023-03-19T07:24:03.772Z,35.22
2023-03-19T07:26:34.606Z,42.95
2023-03-19T07:29:04.383Z,36.60
2023-03-19T07:31:33.968Z,43.40
2023-03-19T07:34:04.078Z,36.00
2023-03-19T07:36:34.720Z,36.92
2023-03-19T07:39:05.994Z,31.50
2023-03-19T07:41:36.812Z,31.23
2023-03-19T07:44:06.608Z,37.75
2023-03-19T07:46:36.074Z,35.92
2023-03-19T07:49:06.175Z,32.97
2023-03-19T07:51:35.752Z,32.72
2023-03-19T07:54:08.590Z,36.45
2023-03-19T07:56:39.816Z,36.75
2023-03-19T07:59:09.683Z,29.00
2023-03-19T08:01:39.428Z,31.08
2023-03-19T08:04:09.367Z,32.42
2023-03-19T08:06:41.464Z,42.28
2023-03-19T08:09:11.448Z,31.00
2023-03-19T08:11:42.816Z,33.03
2023-03-19T08:14:13.050Z,30.58
2023-03-19T08:16:42.659Z,32.10
2023-03-19T08:19:12.671Z,35.23
2023-03-19T08:21:41.991Z,21.67
2023-03-19T08:24:11.699Z,23.77
2023-03-19T08:26:42.500Z,19.02
2023-03-19T08:29:12.615Z,21.35
2023-03-19T08:31:44.683Z,21.70
2023-03-19T08:34:14.403Z,18.60
2023-03-19T08:36:43.790Z,21.98
2023-03-19T08:39:13.998Z,22.88
2023-03-19T08:41:44.869Z,20.08
2023-03-19T08:44:15.113Z,17.45
2023-03-19T08:46:44.677Z,19.38
2023-03-19T08:49:14.414Z,21.93
2023-03-19T08:51:43.825Z,23.52
2023-03-19T08:54:14.041Z,21.27
2023-03-19T08:56:45.312Z,16.85
2023-03-19T08:59:14.989Z,17.92
2023-03-19T09:01:44.698Z,23.23
2023-03-19T09:04:14.959Z,16.83
2023-03-19T09:06:45.424Z,22.03
2023-03-19T09:11:46.440Z,19.40
2023-03-19T09:14:17.056Z,22.67
2023-03-19T09:16:46.343Z,20.13
2023-03-19T09:19:17.663Z,25.00
2023-03-19T09:21:47.033Z,19.90
2023-03-19T09:24:16.914Z,22.07
2023-03-19T09:26:47.969Z,24.70
2023-03-19T09:29:19.057Z,24.55
2023-03-19T09:31:48.437Z,23.45
2023-03-19T09:34:21.086Z,26.20
2023-03-19T09:36:50.666Z,28.67
2023-03-19T09:39:20.640Z,24.20
2023-03-19T09:42:07.631Z,29.70
2023-03-19T09:44:44.412Z,30.73
2023-03-19T09:47:27.576Z,29.52
2023-03-19T09:50:02.302Z,25.90
2023-03-19T09:52:44.516Z,27.25
2023-03-19T09:55:28.919Z,27.40
2023-03-19T09:58:02.390Z,29.45
2023-03-19T10:00:37.903Z,29.40
2023-03-19T10:03:25.869Z,25.75
2023-03-19T10:06:09.030Z,24.75
2023-03-19T10:08:56.021Z,20.25
2023-03-19T10:11:40.333Z,20.33
2023-03-19T10:14:25.210Z,23.55
2023-03-19T10:16:58.247Z,22.17
2023-03-19T10:19:41.014Z,23.55
2023-03-19T10:22:17.953Z,22.73
2023-03-19T10:24:50.314Z,19.45
2023-03-19T10:27:22.391Z,21.05
2023-03-19T10:29:53.598Z,17.88
2023-03-19T10:32:34.912Z,18.90
2023-03-19T10:37:38.997Z,21.88
2023-03-19T10:43:03.682Z,22.13
2023-03-19T10:45:38.629Z,29.08
2023-03-19T10:48:16.862Z,18.60
2023-03-19T10:50:52.082Z,24.10
2023-03-19T10:53:33.019Z,24.80
2023-03-19T10:56:07.614Z,19.58
2023-03-19T10:58:40.594Z,23.90
2023-03-19T11:01:14.002Z,19.88
2023-03-19T11:03:53.549Z,28.63
2023-03-19T11:06:28.424Z,19.55
2023-03-19T11:09:00.132Z,22.08
2023-03-19T11:11:35.532Z,24.08
2023-03-19T11:14:12.005Z,27.10
2023-03-19T11:16:57.767Z,21.30
2023-03-19T11:19:29.822Z,18.95
2023-03-19T11:22:09.211Z,19.08
2023-03-19T11:24:40.623Z,15.40
2023-03-19T11:27:11.835Z,16.35
2023-03-19T11:29:44.014Z,18.95
2023-03-19T11:32:29.094Z,19.65
2023-03-19T11:35:03.147Z,15.93
2023-03-19T11:37:42.344Z,15.27
2023-03-19T11:40:17.922Z,16.73
2023-03-19T11:43:16.761Z,16.98
2023-03-19T11:45:56.322Z,19.67
2023-03-19T11:48:45.282Z,16.13
2023-03-19T11:51:21.707Z,15.60
2023-03-19T11:54:02.418Z,21.55
2023-03-19T11:56:43.083Z,16.10
2023-03-19T12:02:27.621Z,15.80
2023-03-19T12:05:12.538Z,15.90
2023-03-19T12:07:48.226Z,13.48
2023-03-19T12:10:39.127Z,15.93
2023-03-19T12:13:16.539Z,14.48
2023-03-19T12:15:56.115Z,14.57
2023-03-19T12:18:42.929Z,13.88
2023-03-19T12:21:23.955Z,15.90
2023-03-19T12:24:05.015Z,15.55
2023-03-19T12:26:48.545Z,14.75
2023-03-19T12:29:25.044Z,12.90
2023-03-19T12:32:05.581Z,15.13
2023-03-19T12:34:39.883Z,17.63
2023-03-19T12:37:18.525Z,17.58
2023-03-19T12:39:56.810Z,19.10
2023-03-19T12:42:32.511Z,16.02
2023-03-19T12:45:05.098Z,15.05
2023-03-19T12:47:39.657Z,32.05
2023-03-19T12:50:13.405Z,15.88
2023-03-19T12:52:45.727Z,12.50
2023-03-19T12:55:21.589Z,14.88
2023-03-19T12:57:56.097Z,13.95
2023-03-19T13:00:34.987Z,14.10
2023-03-19T13:03:09.824Z,13.20
2023-03-19T13:05:46.797Z,13.85
2023-03-19T13:08:25.241Z,13.02
2023-03-19T13:10:55.619Z,13.70
2023-03-19T13:13:41.147Z,15.73
2023-03-19T13:16:23.245Z,14.75
2023-03-19T13:19:00.859Z,14.27
2023-03-19T13:21:32.916Z,14.10
2023-03-19T13:24:12.699Z,17.30
2023-03-19T13:26:43.239Z,17.42
2023-03-19T13:29:21.822Z,16.40
2023-03-19T13:31:53.198Z,16.13
2023-03-19T13:34:27.632Z,18.67
2023-03-19T13:37:07.294Z,19.25
2023-03-19T13:39:39.490Z,23.63
2023-03-19T13:42:24.212Z,14.40
2023-03-19T13:44:55.578Z,17.35
2023-03-19T13:47:44.855Z,13.57
2023-03-19T13:50:31.781Z,14.68
2023-03-19T13:53:24.318Z,14.93
2023-03-19T13:55:59.274Z,16.95
2023-03-19T13:58:43.439Z,17.50
2023-03-19T14:01:34.505Z,15.43
2023-03-19T14:04:06.287Z,15.10
2023-03-19T14:06:40.529Z,15.52
2023-03-19T14:09:37.786Z,18.20
2023-03-19T14:12:25.012Z,16.17
2023-03-19T14:15:00.351Z,17.92
2023-03-19T14:17:34.040Z,16.73
2023-03-19T14:20:28.366Z,16.92
2023-03-19T14:23:23.537Z,14.00
2023-03-19T14:26:12.005Z,17.23
2023-03-19T14:28:55.095Z,14.95
2023-03-19T14:31:42.844Z,15.00
2023-03-19T14:34:27.499Z,17.73
2023-03-19T14:37:04.220Z,17.17
2023-03-19T14:39:36.246Z,18.05
2023-03-19T14:42:09.421Z,16.20
2023-03-19T14:45:26.513Z,19.17
2023-03-19T14:48:15.173Z,20.80
2023-03-19T14:51:21.161Z,21.33
2023-03-19T14:53:54.059Z,20.00
2023-03-19T14:56:27.823Z,15.18
2023-03-19T14:59:03.216Z,21.05
2023-03-19T15:01:37.407Z,18.13
2023-03-19T15:04:10.785Z,18.92
2023-03-19T15:06:42.773Z,23.98
2023-03-19T15:09:21.330Z,22.73
2023-03-19T15:12:16.393Z,24.25
2023-03-19T15:15:05.769Z,24.30
2023-03-19T15:17:38.764Z,21.90
2023-03-19T15:20:20.036Z,28.55
2023-03-19T15:22:56.742Z,26.73
2023-03-19T15:25:26.507Z,27.70
2023-03-19T15:28:18.633Z,26.88
2023-03-19T15:31:06.356Z,28.30
2023-03-19T15:33:47.231Z,29.83
2023-03-19T15:36:22.168Z,28.42
2023-03-19T15:38:57.514Z,27.08
2023-03-19T15:41:31.440Z,24.90
2023-03-19T15:44:01.832Z,34.08
2023-03-19T15:46:39.714Z,35.38
2023-03-19T15:49:14.431Z,29.00
2023-03-19T15:51:47.133Z,30.33
2023-03-19T15:54:17.259Z,32.88
2023-03-19T15:59:16.483Z,31.25
2023-03-19T16:01:46.617Z,32.90
2023-03-19T16:04:21.419Z,32.10
2023-03-19T16:06:51.689Z,35.33
2023-03-19T16:09:26.586Z,38.83
2023-03-19T16:11:57.648Z,42.42
2023-03-19T16:14:28.772Z,46.20
2023-03-19T16:17:03.246Z,41.58
2023-03-19T16:19:37.128Z,47.95
2023-03-19T16:22:15.312Z,42.10
2023-03-19T16:24:46.914Z,35.85
2023-03-19T16:27:23.561Z,34.92
2023-03-19T16:29:59.365Z,49.13
2023-03-19T16:32:32.572Z,45.83
2023-03-19T16:35:08.352Z,38.38
2023-03-19T16:37:43.746Z,40.03
2023-03-19T16:40:49.445Z,44.28
2023-03-19T16:43:21.882Z,45.22
2023-03-19T16:46:05.750Z,43.35
2023-03-19T16:48:36.273Z,55.45
2023-03-19T16:51:10.949Z,48.60
2023-03-19T16:53:40.856Z,44.67
2023-03-19T16:56:14.766Z,43.38
2023-03-19T16:58:46.844Z,47.60
2023-03-19T17:01:18.384Z,56.15
2023-03-19T17:03:49.907Z,55.83
2023-03-19T17:06:22.029Z,53.58
2023-03-19T17:08:52.585Z,54.15
2023-03-19T17:11:27.718Z,52.80
2023-03-19T17:13:59.335Z,57.20
2023-03-19T17:16:30.224Z,53.08
2023-03-19T17:19:00.318Z,55.85
2023-03-19T17:21:34.146Z,48.40
2023-03-19T17:24:23.173Z,51.60
2023-03-19T17:26:52.652Z,57.03
2023-03-19T17:29:25.547Z,66.95
2023-03-19T17:31:56.952Z,55.60
2023-03-19T17:34:32.456Z,57.05
2023-03-19T17:37:05.588Z,53.17
2023-03-19T17:39:35.417Z,53.42
2023-03-19T17:42:04.773Z,57.55
2023-03-19T17:44:34.628Z,62.88
2023-03-19T17:47:04.382Z,71.85
2023-03-19T17:49:34.740Z,65.25
2023-03-19T17:52:05.993Z,56.00
2023-03-19T17:54:35.853Z,61.17
2023-03-19T17:57:05.254Z,64.60
2023-03-19T17:59:35.038Z,63.35
2023-03-19T18:02:04.898Z,60.45
2023-03-19T18:04:34.826Z,65.50
2023-03-19T18:07:05.725Z,56.83
2023-03-19T18:09:35.597Z,65.07
2023-03-19T18:12:06.888Z,71.35
2023-03-19T18:14:36.847Z,78.32
2023-03-19T18:17:08.208Z,66.70
2023-03-19T18:19:41.031Z,73.28
2023-03-19T18:22:16.117Z,81.50
2023-03-19T18:24:46.604Z,80.18
2023-03-19T18:27:16.681Z,73.35
2023-03-19T18:29:46.484Z,73.70
2023-03-19T18:32:20.964Z,72.72
2023-03-19T18:34:50.786Z,75.80
2023-03-19T18:37:22.255Z,76.45
2023-03-19T18:39:52.008Z,72.15
2023-03-19T18:42:21.306Z,78.60
2023-03-19T18:44:51.497Z,75.85
2023-03-19T18:47:21.097Z,66.57
2023-03-19T18:49:50.862Z,65.83
2023-03-19T18:52:21.952Z,72.93
2023-03-19T18:54:51.759Z,73.25
2023-03-19T18:57:21.815Z,70.43
2023-03-19T18:59:51.869Z,80.07
2023-03-19T19:02:34.681Z,73.95
2023-03-19T19:05:04.903Z,87.22
2023-03-19T19:07:35.660Z,83.95
2023-03-19T19:10:05.994Z,82.18
2023-03-19T19:12:39.634Z,83.60
2023-03-19T19:15:22.165Z,72.93
2023-03-19T19:17:51.972Z,75.00
2023-03-19T19:20:24.571Z,79.07
2023-03-19T19:22:56.780Z,84.28
2023-03-19T19:25:31.134Z,82.78
2023-03-19T19:28:02.822Z,73.07
2023-03-19T19:30:34.129Z,75.60
2023-03-19T19:33:04.859Z,76.30
2023-03-19T19:35:34.642Z,73.90
2023-03-19T19:38:07.551Z,77.28
2023-03-19T19:40:37.934Z,90.35
2023-03-19T19:43:07.558Z,74.63
2023-03-19T19:45:41.981Z,81.60
2023-03-19T19:48:17.598Z,90.32
2023-03-19T19:50:48.767Z,93.88
2023-03-19T19:53:20.570Z,92.75
2023-03-19T19:55:50.884Z,98.35
2023-03-19T19:58:22.689Z,90.47
2023-03-19T20:01:03.336Z,91.22
2023-03-19T20:06:04.580Z,82.53
2023-03-19T20:08:35.377Z,80.43
2023-03-19T20:11:05.632Z,82.53
2023-03-19T20:13:36.871Z,86.47
2023-03-19T20:16:08.023Z,82.72
2023-03-19T20:18:43.642Z,94.70
2023-03-19T20:21:14.190Z,75.47
2023-03-19T20:23:47.012Z,75.45
2023-03-19T20:26:19.042Z,79.68
2023-03-19T20:28:49.534Z,75.20
2023-03-19T20:33:51.052Z,78.18
2023-03-19T20:36:24.256Z,82.40
2023-03-19T20:38:58.670Z,90.70
2023-03-19T20:41:28.837Z,79.57
2023-03-19T20:43:58.480Z,82.30
2023-03-19T20:46:28.266Z,88.57
2023-03-19T20:48:57.564Z,81.15
2023-03-19T20:51:32.864Z,80.93
2023-03-19T20:54:06.035Z,80.53
2023-03-19T20:56:38.509Z,82.60
2023-03-19T20:59:09.977Z,87.50
2023-03-19T21:01:39.937Z,92.38
2023-03-19T21:04:19.582Z,85.25
2023-03-19T21:06:53.879Z,89.05
2023-03-19T21:09:26.206Z,84.85
2023-03-19T21:11:58.157Z,86.57
2023-03-19T21:14:27.772Z,78.75
2023-03-19T21:16:57.448Z,80.93
2023-03-19T21:19:27.171Z,82.07
2023-03-19T21:21:57.470Z,87.93
2023-03-19T21:24:28.733Z,79.57
2023-03-19T21:27:01.922Z,85.65
2023-03-19T21:29:34.900Z,85.45
2023-03-19T21:32:05.002Z,82.43
2023-03-19T21:34:34.286Z,80.55
2023-03-19T21:37:04.932Z,84.15
2023-03-19T21:39:36.756Z,90.80
2023-03-19T21:42:09.798Z,82.97
2023-03-19T21:44:40.305Z,87.70
2023-03-19T21:49:44.618Z,80.38
2023-03-19T21:52:19.344Z,90.38
2023-03-19T21:54:50.217Z,86.88
2023-03-19T21:57:20.292Z,84.85
2023-03-19T21:59:49.767Z,81.18
2023-03-19T22:02:42.959Z,84.00
2023-03-19T22:05:21.687Z,103.72
2023-03-19T22:07:52.208Z,87.72
2023-03-19T22:10:30.145Z,90.45
2023-03-19T22:13:00.102Z,95.22
2023-03-19T22:15:35.347Z,96.78
2023-03-19T22:18:07.097Z,97.60
2023-03-19T22:20:36.439Z,87.13
2023-03-19T22:23:07.985Z,87.53
2023-03-19T22:25:42.006Z,90.25
2023-03-19T22:28:19.351Z,89.63
2023-03-19T22:30:49.515Z,89.13
2023-03-19T22:33:21.695Z,86.32
2023-03-19T22:35:51.981Z,95.35
2023-03-19T22:38:23.489Z,86.28
2023-03-19T22:40:56.389Z,97.70
2023-03-19T22:43:30.630Z,98.38
2023-03-19T22:46:04.263Z,92.00
2023-03-19T22:48:34.275Z,94.60
2023-03-19T22:51:04.389Z,95.90
2023-03-19T22:53:36.896Z,105.82
2023-03-19T22:56:08.357Z,96.55
2023-03-19T22:58:38.629Z,99.03
2023-03-19T23:01:29.944Z,91.13
2023-03-19T23:04:08.658Z,90.97
2023-03-19T23:06:38.042Z,97.50
2023-03-19T23:09:08.458Z,93.35
2023-03-19T23:11:39.714Z,109.57
2023-03-19T23:14:22.065Z,99.32
2023-03-19T23:17:01.968Z,108.00
2023-03-19T23:19:33.483Z,107.82
2023-03-19T23:22:05.226Z,100.35
2023-03-19T23:24:38.014Z,107.20
2023-03-19T23:27:24.659Z,105.75
2023-03-19T23:29:54.781Z,117.28
2023-03-19T23:32:24.437Z,101.15
2023-03-19T23:35:00.632Z,109.63
2023-03-19T23:37:31.257Z,110.22
2023-03-19T23:40:01.081Z,103.27
2023-03-19T23:42:33.867Z,112.18
2023-03-19T23:45:04.889Z,107.20
2023-03-19T23:47:34.889Z,107.82
2023-03-19T23:50:04.786Z,103.93
2023-03-19T23:52:34.405Z,96.53
2023-03-19T23:55:04.675Z,110.47
2023-03-19T23:57:35.876Z,104.47
